Time;durP1;ratioP1;P1;durP2;ratioP2;P2;SDS_P1;SDS_P2;PMS_P1;PMS_P2;Temp;Humidity;BMP_temperature;BMP_pressure;BME280_temperature;BME280_humidity;BME280_pressure;Samples;Min_cycle;Max_cycle;Signal;HPM_P1;HPM_P2
2023/08/13 00:00:38;;;;;;;0.50;0.30;;;;;;;22.08;100.00;100403.00;5013791;28;20801;-48
2023/08/13 00:03:04;;;;;;;0.43;0.20;;;;;;;21.98;100.00;100404.63;5014103;28;20447;-48
2023/08/13 00:05:31;;;;;;;0.50;0.30;;;;;;;21.72;100.00;100409.25;5013456;28;20435;-48
2023/08/13 00:07:57;;;;;;;0.50;0.20;;;;;;;21.77;100.00;100398.94;5005707;28;20461;-48
2023/08/13 00:10:24;;;;;;;0.50;0.30;;;;;;;21.80;100.00;100404.16;5009348;28;20467;-48
2023/08/13 00:12:50;;;;;;;0.40;0.23;;;;;;;21.77;100.00;100411.63;5012536;28;20550;-48
2023/08/13 00:15:17;;;;;;;2.00;1.90;;;;;;;21.78;100.00;100410.63;5013531;28;20448;-48
2023/08/13 00:17:43;;;;;;;0.50;0.20;;;;;;;21.70;100.00;100404.94;5013608;28;20438;-48
2023/08/13 00:20:10;;;;;;;0.50;0.20;;;;;;;21.58;100.00;100401.28;5013281;28;20882;-48
2023/08/13 00:22:37;;;;;;;0.50;0.30;;;;;;;21.63;100.00;100404.50;5013487;28;20554;-49
2023/08/13 00:25:04;;;;;;;0.50;0.30;;;;;;;21.43;100.00;100407.78;5013422;28;20502;-48
2023/08/13 00:27:30;;;;;;;0.47;0.20;;;;;;;21.36;100.00;100406.50;5013480;28;20452;-48
2023/08/13 00:29:56;;;;;;;0.50;0.20;;;;;;;21.32;100.00;100396.88;5013240;28;20929;-48
2023/08/13 00:32:23;;;;;;;0.50;0.20;;;;;;;21.22;100.00;100408.31;5013078;28;20503;-48
2023/08/13 00:34:49;;;;;;;0.50;0.30;;;;;;;21.23;100.00;100410.03;5007089;28;20420;-48
2023/08/13 00:37:16;;;;;;;0.50;0.30;;;;;;;21.21;100.00;100409.28;5013238;28;20499;-48
2023/08/13 00:39:43;;;;;;;0.50;0.20;;;;;;;21.27;100.00;100410.75;5013336;28;20828;-48
2023/08/13 00:42:09;;;;;;;0.50;0.20;;;;;;;21.27;100.00;100408.91;5006326;28;20484;-48
2023/08/13 00:44:36;;;;;;;0.50;0.20;;;;;;;21.18;100.00;100403.22;5013301;28;20525;-48
2023/08/13 00:47:02;;;;;;;1.40;1.30;;;;;;;21.12;100.00;100409.09;5012995;28;20469;-48
2023/08/13 00:49:29;;;;;;;0.50;0.20;;;;;;;21.02;100.00;100408.00;5013042;28;20539;-48
2023/08/13 00:51:57;;;;;;;0.40;0.30;;;;;;;20.93;100.00;100406.78;5012678;28;20447;-48
2023/08/13 00:54:23;;;;;;;0.50;0.20;;;;;;;20.92;100.00;100419.44;5013088;28;20448;-48
2023/08/13 00:56:52;;;;;;;0.50;0.20;;;;;;;20.80;100.00;100417.56;5013233;28;20539;-48
2023/08/13 00:59:20;;;;;;;0.50;0.20;;;;;;;20.68;100.00;100413.88;5013050;28;20490;-48
2023/08/13 01:01:47;;;;;;;0.50;0.20;;;;;;;20.64;100.00;100409.66;5012583;28;20973;-48
2023/08/13 01:04:13;;;;;;;0.50;0.23;;;;;;;20.60;100.00;100420.78;5012685;28;20824;-48
2023/08/13 01:07:03;;;;;;;0.40;0.30;;;;;;;20.45;100.00;100413.75;5012687;28;20460;-48
2023/08/13 01:10:00;;;;;;;0.50;0.30;;;;;;;20.51;100.00;100424.97;4999998;28;20496;-48
2023/08/13 01:12:38;;;;;;;0.50;0.20;;;;;;;20.47;100.00;100419.91;4991478;28;20492;-48
2023/08/13 01:15:19;;;;;;;0.50;0.20;;;;;;;20.38;100.00;100424.91;5012569;28;20442;-48
2023/08/13 01:17:49;;;;;;;0.50;0.20;;;;;;;20.39;100.00;100407.72;5012594;28;20907;-48
2023/08/13 01:20:16;;;;;;;0.50;0.20;;;;;;;20.40;100.00;100414.84;4980473;28;20515;-48
2023/08/13 01:22:46;;;;;;;0.50;0.20;;;;;;;20.28;100.00;100404.00;5006769;28;20505;-48
2023/08/13 01:25:14;;;;;;;0.50;0.20;;;;;;;20.30;100.00;100404.81;5012507;28;20439;-49
2023/08/13 01:28:23;;;;;;;0.50;0.30;;;;;;;20.20;100.00;100403.69;5012388;28;21032;-48
2023/08/13 01:30:56;;;;;;;0.50;0.30;;;;;;;20.16;100.00;100394.06;5012276;28;20863;-48
2023/08/13 01:33:28;;;;;;;0.50;0.30;;;;;;;20.01;100.00;100393.22;5013008;28;20513;-50
2023/08/13 01:35:58;;;;;;;0.50;0.20;;;;;;;20.11;100.00;100397.91;5010101;28;20591;-50
2023/08/13 01:38:25;;;;;;;0.50;0.23;;;;;;;20.15;100.00;100405.78;4999663;28;20929;-51
2023/08/13 01:40:51;;;;;;;0.50;0.20;;;;;;;20.13;100.00;100405.91;5012388;28;20427;-50
2023/08/13 01:43:18;;;;;;;0.40;0.20;;;;;;;20.27;100.00;100411.25;5002740;28;20460;-50
2023/08/13 01:45:44;;;;;;;0.50;0.20;;;;;;;20.24;100.00;100413.28;5012286;28;20483;-51
2023/08/13 01:48:11;;;;;;;0.50;0.20;;;;;;;20.36;100.00;100410.63;5012424;28;20453;-50
2023/08/13 01:50:39;;;;;;;0.50;0.20;;;;;;;19.99;100.00;100406.81;5012432;28;20475;-50
2023/08/13 01:53:05;;;;;;;0.50;0.20;;;;;;;19.96;100.00;100408.84;5012552;28;20988;-50
2023/08/13 01:55:32;;;;;;;0.50;0.20;;;;;;;20.09;100.00;100407.94;5012228;28;20457;-50
2023/08/13 01:57:58;;;;;;;0.50;0.20;;;;;;;20.23;100.00;100398.94;5012246;28;20457;-50
2023/08/13 02:00:25;;;;;;;0.50;0.20;;;;;;;20.10;100.00;100398.00;5012074;28;20427;-51
2023/08/13 02:02:51;;;;;;;0.50;0.20;;;;;;;20.11;100.00;100402.44;5012448;28;20468;-51
2023/08/13 02:05:18;;;;;;;0.50;0.20;;;;;;;20.11;100.00;100403.31;5012125;28;20423;-50
2023/08/13 02:07:44;;;;;;;0.43;0.20;;;;;;;20.01;100.00;100413.00;5012218;28;20644;-50
2023/08/13 02:10:11;;;;;;;0.50;0.20;;;;;;;20.09;100.00;100409.78;5012065;28;20535;-50
2023/08/13 02:12:39;;;;;;;0.50;0.20;;;;;;;20.09;100.00;100404.38;5011913;28;20518;-50
2023/08/13 02:15:06;;;;;;;0.40;0.20;;;;;;;20.10;100.00;100414.22;5011990;28;20507;-50
2023/08/13 02:17:32;;;;;;;0.50;0.20;;;;;;;19.97;100.00;100410.59;5012057;28;20424;-50
2023/08/13 02:19:59;;;;;;;0.50;0.30;;;;;;;19.93;100.00;100415.31;5013716;28;20452;-50
2023/08/13 02:22:25;;;;;;;0.50;0.20;;;;;;;19.89;100.00;100419.19;5015507;28;20940;-50
2023/08/13 02:24:52;;;;;;;0.50;0.20;;;;;;;19.99;100.00;100414.03;5015748;28;20452;-50
2023/08/13 02:27:18;;;;;;;0.50;0.20;;;;;;;20.05;100.00;100413.66;5015566;28;20477;-49
2023/08/13 02:29:45;;;;;;;0.47;0.20;;;;;;;19.86;100.00;100416.66;5015310;28;20445;-50
2023/08/13 02:32:11;;;;;;;0.50;0.20;;;;;;;19.87;100.00;100421.09;5015309;28;20501;-50
2023/08/13 02:34:44;;;;;;;0.40;0.20;;;;;;;19.90;100.00;100404.75;5013113;28;20503;-50
2023/08/13 02:37:10;;;;;;;0.47;0.20;;;;;;;19.78;100.00;100405.53;5006809;28;20871;-50
2023/08/13 02:39:37;;;;;;;0.50;0.20;;;;;;;19.85;100.00;100400.59;5012006;28;20460;-50
2023/08/13 02:42:04;;;;;;;0.47;0.20;;;;;;;19.74;100.00;100410.28;5008404;28;20510;-50
2023/08/13 02:44:30;;;;;;;0.50;0.20;;;;;;;19.78;100.00;100400.13;5012624;28;20975;-50
2023/08/13 02:46:57;;;;;;;0.47;0.20;;;;;;;19.86;100.00;100402.31;5015313;28;20452;-50
2023/08/13 02:49:23;;;;;;;0.50;0.20;;;;;;;19.78;100.00;100409.09;5015250;28;20427;-49
2023/08/13 02:51:50;;;;;;;1.50;1.50;;;;;;;19.74;100.00;100406.72;5015128;28;20559;-50
2023/08/13 02:54:16;;;;;;;0.50;0.30;;;;;;;19.78;100.00;100402.84;5014782;28;20495;-49
2023/08/13 02:56:43;;;;;;;0.50;0.23;;;;;;;19.87;100.00;100413.00;5015226;28;20908;-50
2023/08/13 02:59:09;;;;;;;0.40;0.20;;;;;;;19.82;100.00;100412.44;5015213;28;20449;-50
2023/08/13 03:01:38;;;;;;;0.50;0.20;;;;;;;19.75;100.00;100416.53;5015217;28;20505;-51
2023/08/13 03:04:06;;;;;;;0.40;0.20;;;;;;;19.66;100.00;100411.72;5014882;28;20445;-51
2023/08/13 03:06:32;;;;;;;0.50;0.20;;;;;;;19.57;100.00;100405.06;5014750;28;20823;-51
2023/08/13 03:08:59;;;;;;;0.40;0.20;;;;;;;19.57;100.00;100401.50;5014523;28;20804;-51
2023/08/13 03:11:25;;;;;;;0.40;0.20;;;;;;;19.54;100.00;100402.53;5014720;28;20478;-51
2023/08/13 03:13:52;;;;;;;0.50;0.30;;;;;;;19.75;100.00;100409.31;5014770;28;20564;-51
2023/08/13 03:16:20;;;;;;;0.40;0.20;;;;;;;19.68;100.00;100404.38;5015057;28;20479;-51
2023/08/13 03:18:46;;;;;;;0.50;0.20;;;;;;;19.65;100.00;100405.47;5014575;28;20452;-51
2023/08/13 03:21:13;;;;;;;0.47;0.20;;;;;;;19.54;100.00;100399.84;5014537;28;20550;-51
2023/08/13 03:23:39;;;;;;;0.50;0.20;;;;;;;19.60;100.00;100391.41;5014375;28;20452;-51
2023/08/13 03:26:06;;;;;;;0.50;0.20;;;;;;;19.57;100.00;100393.41;5014772;28;20503;-51
2023/08/13 03:28:32;;;;;;;0.50;0.20;;;;;;;19.56;100.00;100391.69;5014378;28;20911;-51
2023/08/13 03:31:00;;;;;;;0.50;0.30;;;;;;;19.56;100.00;100392.56;5013351;28;20423;-51
2023/08/13 03:33:27;;;;;;;0.50;0.20;;;;;;;19.49;100.00;100391.19;5014427;28;20580;-51
2023/08/13 03:35:53;;;;;;;0.50;0.20;;;;;;;19.37;100.00;100389.28;5011808;28;20477;-50
2023/08/13 03:38:20;;;;;;;0.50;0.20;;;;;;;19.35;100.00;100399.28;5001072;28;20474;-51
2023/08/13 03:40:46;;;;;;;0.50;0.20;;;;;;;19.36;100.00;100392.94;5014324;28;20491;-51
2023/08/13 03:43:13;;;;;;;0.50;0.20;;;;;;;19.42;100.00;100401.50;4988227;28;20442;-51
2023/08/13 03:45:41;;;;;;;0.40;0.20;;;;;;;19.51;100.00;100398.22;5014360;28;20473;-51
2023/08/13 03:48:07;;;;;;;0.50;0.20;;;;;;;19.49;100.00;100396.59;5014124;28;20484;-51
2023/08/13 03:50:34;;;;;;;0.47;0.20;;;;;;;19.44;100.00;100402.25;5013831;28;20514;-50
2023/08/13 03:53:00;;;;;;;0.40;0.20;;;;;;;19.37;100.00;100400.06;5013726;28;20888;-51
2023/08/13 03:55:27;;;;;;;0.50;0.20;;;;;;;19.35;100.00;100402.00;5014055;28;20890;-50
2023/08/13 03:57:53;;;;;;;0.50;0.20;;;;;;;19.44;100.00;100401.38;5014178;28;20431;-50
2023/08/13 04:00:20;;;;;;;0.40;0.20;;;;;;;19.48;100.00;100411.03;5013855;28;20539;-49
2023/08/13 04:02:48;;;;;;;0.50;0.20;;;;;;;19.56;100.00;100416.81;5013875;28;20443;-49
2023/08/13 04:05:16;;;;;;;0.47;0.20;;;;;;;19.48;100.00;100411.91;5013598;28;20818;-51
2023/08/13 04:07:42;;;;;;;0.50;0.20;;;;;;;19.36;100.00;100412.66;5013952;28;20427;-48
2023/08/13 04:10:09;;;;;;;0.40;0.20;;;;;;;19.32;100.00;100413.81;5013722;28;20906;-48
2023/08/13 04:12:35;;;;;;;0.50;0.20;;;;;;;19.31;100.00;100411.22;5013815;28;20899;-49
2023/08/13 04:15:03;;;;;;;0.50;0.20;;;;;;;19.38;100.00;100409.88;5013485;28;20557;-48
2023/08/13 04:17:29;;;;;;;0.50;0.20;;;;;;;19.29;100.00;100405.91;5013584;28;20505;-48
2023/08/13 04:19:55;;;;;;;0.47;0.20;;;;;;;19.38;100.00;100412.56;5013274;28;20435;-48
2023/08/13 04:22:22;;;;;;;0.40;0.20;;;;;;;19.45;100.00;100420.16;5013496;28;20500;-49
2023/08/13 04:24:50;;;;;;;0.40;0.20;;;;;;;19.56;100.00;100411.44;5013380;28;20427;-48
2023/08/13 04:27:17;;;;;;;0.40;0.20;;;;;;;19.62;100.00;100413.75;5013341;28;20453;-49
2023/08/13 04:29:44;;;;;;;0.50;0.20;;;;;;;19.51;100.00;100411.69;5013339;28;20419;-51
2023/08/13 04:32:11;;;;;;;0.50;0.20;;;;;;;19.52;100.00;100412.56;5013204;28;20484;-51
2023/08/13 04:34:38;;;;;;;0.43;0.20;;;;;;;19.55;100.00;100412.41;5011151;28;20492;-51
2023/08/13 04:37:04;;;;;;;0.40;0.20;;;;;;;19.52;100.00;100410.72;5004059;28;21024;-50
2023/08/13 04:39:32;;;;;;;0.50;0.30;;;;;;;19.41;100.00;100420.47;5009752;28;20502;-50
2023/08/13 04:41:59;;;;;;;0.40;0.20;;;;;;;19.53;100.00;100422.38;5006966;28;20489;-50
2023/08/13 04:44:26;;;;;;;0.50;0.30;;;;;;;19.57;100.00;100413.16;5009839;28;20933;-51
2023/08/13 04:46:53;;;;;;;0.50;0.20;;;;;;;19.43;100.00;100411.31;5013151;28;20451;-51
2023/08/13 04:49:19;;;;;;;0.50;0.20;;;;;;;19.45;100.00;100412.06;5012843;28;20471;-50
2023/08/13 04:51:46;;;;;;;0.50;0.20;;;;;;;19.48;100.00;100409.22;5011607;28;20917;-51
2023/08/13 04:54:13;;;;;;;0.40;0.20;;;;;;;19.27;100.00;100423.16;5012845;28;20524;-51
2023/08/13 04:56:39;;;;;;;0.50;0.20;;;;;;;19.18;100.00;100411.97;5013045;28;20431;-50
2023/08/13 04:59:06;;;;;;;0.40;0.20;;;;;;;19.43;100.00;100418.53;5012864;28;20453;-50
2023/08/13 05:01:32;;;;;;;0.50;0.20;;;;;;;19.55;100.00;100415.09;5012831;28;20623;-51
2023/08/13 05:03:59;;;;;;;0.40;0.20;;;;;;;19.49;100.00;100429.81;5013038;28;20532;-51
2023/08/13 05:06:25;;;;;;;1.50;1.43;;;;;;;19.46;100.00;100421.03;5012963;28;20840;-50
2023/08/13 05:08:52;;;;;;;0.40;0.20;;;;;;;19.64;100.00;100414.50;5012761;28;20519;-50
2023/08/13 05:11:18;;;;;;;0.40;0.20;;;;;;;19.67;100.00;100414.31;5012858;28;20451;-50
2023/08/13 05:13:45;;;;;;;0.50;0.30;;;;;;;19.66;100.00;100415.28;5012561;28;20496;-51
2023/08/13 05:16:11;;;;;;;0.40;0.20;;;;;;;19.58;100.00;100425.69;5012595;28;20449;-50
2023/08/13 05:18:38;;;;;;;0.50;0.20;;;;;;;19.68;100.00;100421.44;5012642;28;20453;-51
2023/08/13 05:21:06;;;;;;;0.40;0.20;;;;;;;19.73;100.00;100422.00;5012549;28;20450;-51
2023/08/13 05:23:32;;;;;;;0.40;0.20;;;;;;;19.84;100.00;100426.69;5012574;28;20510;-50
2023/08/13 05:25:59;;;;;;;0.50;0.30;;;;;;;19.76;100.00;100424.53;5012564;28;20452;-51
2023/08/13 05:28:25;;;;;;;0.40;0.20;;;;;;;19.78;100.00;100421.72;5013001;28;20427;-51
2023/08/13 05:30:51;;;;;;;0.40;0.20;;;;;;;19.85;100.00;100423.03;5012325;28;20547;-51
2023/08/13 05:33:18;;;;;;;0.40;0.20;;;;;;;19.79;100.00;100418.91;5012498;28;20808;-51
2023/08/13 05:35:44;;;;;;;0.40;0.20;;;;;;;19.84;100.00;100418.59;5010027;28;20848;-51
2023/08/13 05:38:11;;;;;;;0.40;0.20;;;;;;;19.87;100.00;100421.09;4999291;28;20423;-50
2023/08/13 05:40:37;;;;;;;0.40;0.20;;;;;;;20.07;100.00;100427.91;5012682;28;20452;-50
2023/08/13 05:43:04;;;;;;;0.40;0.20;;;;;;;20.11;100.00;100429.44;5002173;28;20506;-50
2023/08/13 05:45:30;;;;;;;0.50;0.30;;;;;;;20.10;100.00;100433.09;5012471;28;20783;-50
2023/08/13 05:47:57;;;;;;;0.50;0.20;;;;;;;20.26;100.00;100427.56;5012381;28;20502;-50
2023/08/13 05:50:24;;;;;;;0.40;0.20;;;;;;;20.36;100.00;100429.53;5012218;28;20459;-51
2023/08/13 05:52:51;;;;;;;0.40;0.20;;;;;;;20.52;100.00;100433.94;5011993;28;20818;-50
2023/08/13 05:55:17;;;;;;;0.40;0.20;;;;;;;20.65;100.00;100424.03;5014454;28;20492;-51
2023/08/13 05:57:44;;;;;;;0.40;0.20;;;;;;;20.71;100.00;100429.03;5016003;28;20452;-50
2023/08/13 06:00:11;;;;;;;0.40;0.20;;;;;;;20.74;100.00;100433.38;5016052;28;20978;-51
2023/08/13 06:02:37;;;;;;;0.40;0.20;;;;;;;20.76;100.00;100431.41;5015791;28;20468;-50
2023/08/13 06:05:06;;;;;;;0.40;0.20;;;;;;;20.88;100.00;100434.13;5016116;28;20473;-51
2023/08/13 06:07:34;;;;;;;0.50;0.20;;;;;;;21.00;100.00;100432.44;5015760;28;20427;-51
2023/08/13 06:10:02;;;;;;;0.40;0.20;;;;;;;21.08;100.00;100424.63;5015886;28;20963;-51
2023/08/13 06:12:28;;;;;;;0.40;0.20;;;;;;;21.26;100.00;100433.34;5015547;28;20474;-51
2023/08/13 06:14:55;;;;;;;0.40;0.20;;;;;;;21.35;100.00;100418.28;5015699;28;20522;-50
2023/08/13 06:17:22;;;;;;;0.40;0.20;;;;;;;21.47;100.00;100429.09;5015841;28;20501;-51
2023/08/13 06:19:49;;;;;;;0.40;0.20;;;;;;;21.65;100.00;100431.44;5014564;28;20434;-49
2023/08/13 06:22:15;;;;;;;0.40;0.20;;;;;;;21.35;100.00;100435.38;5015519;28;20468;-50
2023/08/13 06:24:42;;;;;;;0.40;0.20;;;;;;;21.51;100.00;100427.03;5015423;28;20430;-49
2023/08/13 06:27:09;;;;;;;0.50;0.20;;;;;;;21.44;100.00;100429.31;5015433;28;20477;-50
2023/08/13 06:29:35;;;;;;;0.50;0.20;;;;;;;21.59;100.00;100430.91;5015400;28;20513;-50
2023/08/13 06:32:02;;;;;;;0.40;0.20;;;;;;;21.68;100.00;100436.66;5015190;28;20549;-50
2023/08/13 06:34:28;;;;;;;0.50;0.20;;;;;;;21.64;100.00;100441.41;5013879;28;20462;-51
2023/08/13 06:36:55;;;;;;;0.50;0.30;;;;;;;21.75;100.00;100441.50;5006279;28;20431;-50
2023/08/13 06:39:21;;;;;;;0.50;0.30;;;;;;;21.78;100.00;100441.28;5010073;28;20498;-51
2023/08/13 06:41:48;;;;;;;0.50;0.20;;;;;;;21.88;100.00;100438.75;5010880;28;20817;-51
2023/08/13 06:44:19;;;;;;;0.50;0.30;;;;;;;21.69;100.00;100436.53;5009699;28;20849;-51
2023/08/13 06:46:47;;;;;;;0.40;0.20;;;;;;;21.69;100.00;100441.09;5015219;28;20448;-51
2023/08/13 06:49:14;;;;;;;0.50;0.20;;;;;;;21.84;100.00;100437.28;5015147;28;20531;-50
2023/08/13 06:51:41;;;;;;;0.40;0.20;;;;;;;21.83;100.00;100431.00;5014967;28;20511;-51
2023/08/13 06:54:08;;;;;;;0.40;0.20;;;;;;;21.72;100.00;100441.72;5014959;28;20566;-51
2023/08/13 06:56:35;;;;;;;0.50;0.20;;;;;;;21.48;100.00;100438.94;5015313;28;20558;-50
2023/08/13 06:59:02;;;;;;;0.50;0.20;;;;;;;21.55;100.00;100445.66;5015120;28;20558;-51
2023/08/13 07:01:31;;;;;;;0.50;0.20;;;;;;;21.85;100.00;100439.00;5014805;28;21002;-50
2023/08/13 07:03:58;;;;;;;0.40;0.20;;;;;;;21.84;100.00;100440.84;5014826;28;20540;-50
2023/08/13 07:06:25;;;;;;;0.40;0.20;;;;;;;21.77;100.00;100439.53;5013500;28;20893;-50
2023/08/13 07:08:52;;;;;;;0.50;0.20;;;;;;;21.80;100.00;100435.78;5014822;28;20457;-50
2023/08/13 07:11:18;;;;;;;0.40;0.20;;;;;;;22.12;100.00;100438.84;5015059;28;20663;-50
2023/08/13 07:13:45;;;;;;;0.40;0.20;;;;;;;22.03;100.00;100442.19;5014797;28;20453;-50
2023/08/13 07:16:13;;;;;;;0.40;0.20;;;;;;;22.09;100.00;100428.25;5014742;28;20428;-51
2023/08/13 07:18:42;;;;;;;0.50;0.30;;;;;;;22.37;100.00;100429.75;5014647;28;20453;-51
2023/08/13 07:21:09;;;;;;;0.40;0.20;;;;;;;22.45;100.00;100432.72;5014215;28;20894;-51
2023/08/13 07:23:36;;;;;;;0.50;0.20;;;;;;;22.69;100.00;100433.56;5014626;28;20518;-51
2023/08/13 07:26:03;;;;;;;0.50;0.20;;;;;;;23.01;100.00;100438.38;5014427;28;20493;-50
2023/08/13 07:28:32;;;;;;;0.40;0.30;;;;;;;22.84;100.00;100444.25;5014445;28;20456;-52
2023/08/13 07:30:59;;;;;;;0.50;0.20;;;;;;;23.11;100.00;100452.97;5014210;28;20464;-51
2023/08/13 07:33:25;;;;;;;0.40;0.20;;;;;;;23.11;98.33;100457.50;5014936;28;20521;-48
2023/08/13 07:35:51;;;;;;;0.50;0.30;;;;;;;23.28;98.79;100457.03;5011944;28;20492;-48
2023/08/13 07:38:18;;;;;;;0.50;0.30;;;;;;;23.17;98.18;100460.63;5000800;28;20481;-48
2023/08/13 07:40:44;;;;;;;0.50;0.20;;;;;;;23.13;97.75;100459.13;5014120;28;20431;-48
2023/08/13 07:43:11;;;;;;;0.50;0.20;;;;;;;23.47;97.04;100451.06;5004756;28;20468;-48
2023/08/13 07:45:37;;;;;;;0.47;0.30;;;;;;;23.60;95.98;100457.25;5013999;28;20544;-48
2023/08/13 07:48:04;;;;;;;0.50;0.20;;;;;;;23.64;94.15;100450.59;5013697;28;20448;-48
2023/08/13 07:50:31;;;;;;;0.50;0.20;;;;;;;24.07;93.46;100455.25;5014059;28;20527;-48
2023/08/13 07:52:57;;;;;;;0.50;0.20;;;;;;;24.23;92.59;100447.53;5013915;28;20479;-48
2023/08/13 07:55:24;;;;;;;0.50;0.23;;;;;;;24.25;91.86;100442.84;5013900;28;20498;-49
2023/08/13 07:57:51;;;;;;;0.50;0.30;;;;;;;24.72;89.33;100448.91;5014084;28;20431;-48
2023/08/13 08:00:17;;;;;;;0.50;0.30;;;;;;;24.49;89.77;100448.13;5013796;28;20448;-48
2023/08/13 08:02:44;;;;;;;0.50;0.30;;;;;;;24.98;88.83;100446.66;5013668;28;20447;-49
2023/08/13 08:05:12;;;;;;;0.50;0.20;;;;;;;24.66;88.54;100452.97;5013878;28;20452;-48
2023/08/13 08:07:38;;;;;;;0.50;0.20;;;;;;;24.49;89.52;100459.84;5013981;28;20458;-49
2023/08/13 08:10:05;;;;;;;0.50;0.20;;;;;;;24.69;89.40;100454.59;5013947;28;20510;-48
2023/08/13 08:12:32;;;;;;;0.50;0.20;;;;;;;24.59;90.17;100451.78;5013753;28;20472;-48
2023/08/13 08:14:58;;;;;;;0.50;0.27;;;;;;;24.90;88.88;100441.88;5013460;28;20487;-48
2023/08/13 08:17:25;;;;;;;0.50;0.30;;;;;;;24.75;89.52;100440.47;5012877;28;20452;-48
2023/08/13 08:19:51;;;;;;;0.50;0.30;;;;;;;24.78;89.33;100435.63;5013465;28;20449;-48
2023/08/13 08:22:18;;;;;;;0.50;0.30;;;;;;;24.51;89.71;100435.25;5013432;28;21062;-48
2023/08/13 08:24:44;;;;;;;0.50;0.30;;;;;;;24.92;90.01;100433.59;5013429;28;20491;-49
2023/08/13 08:27:11;;;;;;;0.50;0.20;;;;;;;25.04;88.69;100430.69;5013892;28;20504;-48
2023/08/13 08:29:37;;;;;;;0.50;0.30;;;;;;;25.25;87.97;100441.59;5013369;28;20835;-50
2023/08/13 08:32:04;;;;;;;0.50;0.30;;;;;;;25.47;85.73;100440.53;5013251;28;21031;-48
2023/08/13 08:34:30;;;;;;;0.50;0.20;;;;;;;25.12;86.76;100435.50;5011544;28;21000;-48
2023/08/13 08:36:57;;;;;;;0.50;0.30;;;;;;;24.98;86.02;100438.50;5004136;28;21025;-49
2023/08/13 08:39:23;;;;;;;0.50;0.30;;;;;;;25.04;86.80;100436.13;5008190;28;20455;-48
2023/08/13 08:41:55;;;;;;;0.50;0.20;;;;;;;25.45;85.92;100426.22;5008060;28;20963;-48
2023/08/13 08:44:22;;;;;;;0.50;0.23;;;;;;;25.50;84.27;100436.72;5008947;28;20444;-48
2023/08/13 08:46:51;;;;;;;0.50;0.20;;;;;;;25.10;86.35;100432.91;5012965;28;20829;-48
2023/08/13 08:49:19;;;;;;;0.50;0.40;;;;;;;25.28;84.61;100430.41;5012844;28;20452;-49
2023/08/13 08:51:46;;;;;;;0.50;0.30;;;;;;;25.30;86.95;100433.00;5012820;28;20468;-49
2023/08/13 08:54:12;;;;;;;0.50;0.30;;;;;;;25.12;85.90;100427.31;5012785;28;20511;-48
2023/08/13 08:56:38;;;;;;;0.50;0.20;;;;;;;25.16;86.74;100428.78;5012888;28;20426;-49
2023/08/13 08:59:05;;;;;;;0.50;0.20;;;;;;;25.72;84.67;100427.50;5012689;28;20480;-48
2023/08/13 09:01:33;;;;;;;0.50;0.20;;;;;;;25.75;84.15;100430.81;5012682;28;20823;-48
2023/08/13 09:04:00;;;;;;;0.50;0.20;;;;;;;25.51;85.03;100419.38;5012795;28;20471;-49
2023/08/13 09:06:53;;;;;;;0.50;0.30;;;;;;;25.38;84.93;100431.34;5012659;28;20945;-48
2023/08/13 09:09:19;;;;;;;0.50;0.30;;;;;;;26.08;82.01;100426.91;4995635;28;20877;-51
2023/08/13 09:11:46;;;;;;;0.50;0.30;;;;;;;25.94;81.99;100427.31;5011562;28;20885;-51
2023/08/13 09:14:13;;;;;;;0.50;0.30;;;;;;;25.87;80.41;100417.94;5012899;28;20452;-51
2023/08/13 09:16:53;;;;;;;0.50;0.30;;;;;;;25.95;80.41;100420.84;5012723;28;20536;-51
2023/08/13 09:19:22;;;;;;;0.50;0.20;;;;;;;26.46;79.53;100411.66;5012662;28;20539;-51
2023/08/13 09:21:58;;;;;;;0.50;0.30;;;;;;;26.46;76.73;100408.94;5012260;28;20478;-51
2023/08/13 09:24:41;;;;;;;0.50;0.20;;;;;;;26.53;75.90;100413.66;5012856;28;20502;-51
2023/08/13 09:27:08;;;;;;;1.03;1.03;;;;;;;26.46;75.44;100411.66;4988716;28;20510;-51
2023/08/13 09:29:36;;;;;;;0.50;0.30;;;;;;;26.47;75.24;100405.19;5011735;28;20456;-51
2023/08/13 09:32:03;;;;;;;0.50;0.30;;;;;;;26.56;76.69;100407.91;5012281;28;20973;-53
2023/08/13 09:34:31;;;;;;;0.50;0.30;;;;;;;26.60;66.65;100403.03;5010580;28;20550;-51
2023/08/13 09:36:58;;;;;;;0.50;0.23;;;;;;;26.90;63.89;100401.16;5003710;28;20888;-51
2023/08/13 09:39:26;;;;;;;0.50;0.20;;;;;;;26.64;62.92;100393.56;5007669;28;20531;-51
2023/08/13 09:41:54;;;;;;;0.50;0.30;;;;;;;26.68;66.46;100396.84;5006896;28;20564;-50
2023/08/13 09:44:24;;;;;;;0.50;0.27;;;;;;;27.01;66.27;100403.75;5008332;28;20457;-51
2023/08/13 09:46:53;;;;;;;0.50;0.30;;;;;;;27.28;65.53;100402.97;5012203;28;20933;-51
2023/08/13 09:49:26;;;;;;;0.50;0.27;;;;;;;27.07;66.83;100397.69;5012453;28;20456;-51
2023/08/13 09:51:54;;;;;;;0.50;0.20;;;;;;;26.78;65.19;100395.84;5012536;28;20472;-50
2023/08/13 09:54:25;;;;;;;0.50;0.30;;;;;;;26.99;65.78;100406.56;5012234;28;20448;-51
2023/08/13 09:56:57;;;;;;;0.50;0.30;;;;;;;26.72;64.28;100407.31;5012558;28;20875;-51
2023/08/13 09:59:25;;;;;;;0.50;0.30;;;;;;;26.57;63.84;100398.72;5012430;28;20448;-51
2023/08/13 10:01:52;;;;;;;0.50;0.20;;;;;;;26.74;63.84;100404.47;5012283;28;20558;-50
2023/08/13 10:04:20;;;;;;;0.50;0.20;;;;;;;26.97;63.94;100402.25;5012677;28;20461;-51
2023/08/13 10:06:50;;;;;;;0.50;0.23;;;;;;;26.99;64.09;100400.25;5012207;28;20447;-51
2023/08/13 10:09:16;;;;;;;0.50;0.30;;;;;;;26.89;65.32;100405.75;5012251;28;20519;-51
2023/08/13 10:11:43;;;;;;;0.50;0.30;;;;;;;26.68;65.62;100405.88;5012240;28;20546;-50
2023/08/13 10:14:10;;;;;;;0.50;0.30;;;;;;;26.56;66.27;100410.63;5012173;28;20448;-51
2023/08/13 10:16:39;;;;;;;0.50;0.30;;;;;;;26.72;61.15;100404.59;5012317;28;20547;-51
2023/08/13 10:19:06;;;;;;;0.50;0.30;;;;;;;26.88;62.51;100405.88;5012219;28;20448;-51
2023/08/13 10:21:36;;;;;;;0.50;0.20;;;;;;;26.85;63.62;100396.97;5012274;28;20472;-51
2023/08/13 10:24:05;;;;;;;0.50;0.30;;;;;;;26.67;59.49;100403.31;5011893;28;20479;-51
2023/08/13 10:26:32;;;;;;;0.50;0.30;;;;;;;26.91;60.24;100403.72;5011811;28;20448;-51
2023/08/13 10:28:58;;;;;;;0.50;0.30;;;;;;;27.02;59.68;100400.88;5012292;28;20579;-50
2023/08/13 10:31:29;;;;;;;0.50;0.30;;;;;;;26.93;59.52;100398.13;5011872;28;20484;-51
2023/08/13 10:34:17;;;;;;;0.50;0.30;;;;;;;27.51;60.74;100403.44;5012088;28;20539;-51
2023/08/13 10:36:45;;;;;;;0.50;0.30;;;;;;;27.47;59.49;100399.28;5003099;28;20560;-50
2023/08/13 10:39:33;;;;;;;0.50;0.30;;;;;;;27.14;61.25;100396.09;5005907;28;20954;-51
2023/08/13 10:42:24;;;;;;;0.50;0.30;;;;;;;27.32;59.27;100397.06;5008945;28;20507;-51
2023/08/13 10:44:50;;;;;;;0.50;0.30;;;;;;;27.18;61.56;100392.06;5015461;28;20539;-51
2023/08/13 10:47:17;;;;;;;0.50;0.30;;;;;;;27.24;59.76;100393.31;5015222;28;20506;-51
2023/08/13 10:49:43;;;;;;;0.50;0.30;;;;;;;26.90;59.10;100395.69;5015247;28;20507;-51
2023/08/13 10:52:13;;;;;;;0.50;0.23;;;;;;;26.96;61.52;100397.81;5015399;28;20560;-51
2023/08/13 10:54:40;;;;;;;0.50;0.30;;;;;;;27.01;60.70;100396.44;5015230;28;20452;-51
2023/08/13 10:57:06;;;;;;;0.50;0.30;;;;;;;26.82;60.88;100391.81;5015093;28;20448;-51
2023/08/13 10:59:39;;;;;;;1.13;1.13;;;;;;;26.87;61.27;100399.56;5015165;28;20455;-51
2023/08/13 11:02:08;;;;;;;0.50;0.30;;;;;;;26.99;61.86;100401.09;5014769;28;20468;-51
2023/08/13 11:04:36;;;;;;;0.50;0.30;;;;;;;27.33;59.62;100401.50;5015578;28;20448;-51
2023/08/13 11:07:02;;;;;;;0.50;0.30;;;;;;;27.00;59.66;100391.06;5014966;28;20444;-51
2023/08/13 11:09:30;;;;;;;0.50;0.30;;;;;;;27.07;58.70;100394.97;5015277;28;20540;-51
2023/08/13 11:11:56;;;;;;;0.50;0.30;;;;;;;27.10;59.97;100389.19;5014891;28;20527;-51
2023/08/13 11:14:23;;;;;;;0.50;0.30;;;;;;;27.13;58.20;100377.97;5015171;28;20807;-51
2023/08/13 11:16:52;;;;;;;0.50;0.30;;;;;;;26.72;56.60;100392.81;5014953;28;20500;-51
2023/08/13 11:19:18;;;;;;;0.50;0.30;;;;;;;27.09;55.98;100398.41;5014993;28;20452;-51
2023/08/13 11:21:46;;;;;;;0.50;0.30;;;;;;;26.97;53.77;100407.72;5014579;28;20920;-51